Terminal Aerodrome Forecast
Issued by NWS

Home | Current Version | Previous Version | Graphics & Text | Print | Product List | Glossary On
Versions: 1 2 3 4 5 6 7 8 9 10 11 12 13 14 15 16 17 18
000
FTUS45 KGGW 170500
TAFSDY
TAF
KSDY 170534Z 1706/1806 12008KT P6SM OVC013
      TEMPO 1708/1712 VRB04KT 3SM BR OVC009
     FM171900 08006KT P6SM SCT013 OVC030
      AMD LTD TO CLD VIS AND WIND=

USA.gov is the U.S. government's official web portal to all federal, state and local government web resources and services.